sensor_id;sensor_type;location;lat;lon;timestamp;temperature;humidity
72128;DHT22;60000;51.030;7.024;2022-09-29T00:01:20;8.54;93.23
72128;DHT22;60000;51.030;7.024;2022-09-29T00:03:45;8.57;93.17
72128;DHT22;60000;51.030;7.024;2022-09-29T00:06:13;8.54;93.15
72128;DHT22;60000;51.030;7.024;2022-09-29T00:08:39;8.56;93.17
72128;DHT22;60000;51.030;7.024;2022-09-29T00:11:09;8.53;93.09
72128;DHT22;60000;51.030;7.024;2022-09-29T00:13:35;8.56;93.09
72128;DHT22;60000;51.030;7.024;2022-09-29T00:16:01;8.50;93.06
72128;DHT22;60000;51.030;7.024;2022-09-29T00:18:28;8.49;92.87
72128;DHT22;60000;51.030;7.024;2022-09-29T00:20:59;8.46;92.84
72128;DHT22;60000;51.030;7.024;2022-09-29T00:23:25;8.45;92.97
72128;DHT22;60000;51.030;7.024;2022-09-29T00:28:29;8.38;92.98
72128;DHT22;60000;51.030;7.024;2022-09-29T00:30:54;8.35;92.94
72128;DHT22;60000;51.030;7.024;2022-09-29T00:33:19;8.29;92.79
72128;DHT22;60000;51.030;7.024;2022-09-29T00:35:58;8.25;93.06
72128;DHT22;60000;51.030;7.024;2022-09-29T00:38:24;8.24;93.10
72128;DHT22;60000;51.030;7.024;2022-09-29T00:40:49;8.22;93.11
72128;DHT22;60000;51.030;7.024;2022-09-29T00:43:24;8.19;93.25
72128;DHT22;60000;51.030;7.024;2022-09-29T00:45:52;8.19;93.29
72128;DHT22;60000;51.030;7.024;2022-09-29T00:48:23;8.15;93.34
72128;DHT22;60000;51.030;7.024;2022-09-29T00:50:52;8.12;93.38
72128;DHT22;60000;51.030;7.024;2022-09-29T00:53:19;8.09;93.39
72128;DHT22;60000;51.030;7.024;2022-09-29T00:56:06;8.03;93.39
72128;DHT22;60000;51.030;7.024;2022-09-29T00:58:46;8.03;93.31
72128;DHT22;60000;51.030;7.024;2022-09-29T01:01:22;8.01;93.21
72128;DHT22;60000;51.030;7.024;2022-09-29T01:03:53;7.95;93.06
72128;DHT22;60000;51.030;7.024;2022-09-29T01:06:28;7.90;93.04
72128;DHT22;60000;51.030;7.024;2022-09-29T01:09:00;7.87;93.24
72128;DHT22;60000;51.030;7.024;2022-09-29T01:11:26;7.81;93.26
72128;DHT22;60000;51.030;7.024;2022-09-29T01:13:54;7.78;93.22
72128;DHT22;60000;51.030;7.024;2022-09-29T01:16:22;7.77;93.41
72128;DHT22;60000;51.030;7.024;2022-09-29T01:18:48;7.75;93.43
72128;DHT22;60000;51.030;7.024;2022-09-29T01:21:33;7.71;93.32
72128;DHT22;60000;51.030;7.024;2022-09-29T01:26:59;7.67;93.56
72128;DHT22;60000;51.030;7.024;2022-09-29T01:35:20;7.60;93.47
72128;DHT22;60000;51.030;7.024;2022-09-29T01:38:11;7.53;93.26
72128;DHT22;60000;51.030;7.024;2022-09-29T01:40:53;7.51;93.29
72128;DHT22;60000;51.030;7.024;2022-09-29T01:43:26;7.46;93.25
72128;DHT22;60000;51.030;7.024;2022-09-29T01:46:02;7.42;93.43
72128;DHT22;60000;51.030;7.024;2022-09-29T01:48:32;7.37;93.20
72128;DHT22;60000;51.030;7.024;2022-09-29T01:51:04;7.34;93.15
72128;DHT22;60000;51.030;7.024;2022-09-29T01:53:39;7.26;92.93
72128;DHT22;60000;51.030;7.024;2022-09-29T01:56:10;7.20;92.93
72128;DHT22;60000;51.030;7.024;2022-09-29T01:58:50;7.16;93.10
72128;DHT22;60000;51.030;7.024;2022-09-29T02:01:19;7.15;93.52
72128;DHT22;60000;51.030;7.024;2022-09-29T02:03:50;7.11;93.38
72128;DHT22;60000;51.030;7.024;2022-09-29T02:06:23;7.11;93.27
72128;DHT22;60000;51.030;7.024;2022-09-29T02:08:53;7.06;93.41
72128;DHT22;60000;51.030;7.024;2022-09-29T02:11:19;6.99;93.18
72128;DHT22;60000;51.030;7.024;2022-09-29T02:13:55;6.95;93.12
72128;DHT22;60000;51.030;7.024;2022-09-29T02:16:25;6.89;93.15
72128;DHT22;60000;51.030;7.024;2022-09-29T02:18:54;6.84;93.28
72128;DHT22;60000;51.030;7.024;2022-09-29T02:21:21;6.82;93.58
72128;DHT22;60000;51.030;7.024;2022-09-29T02:23:47;6.85;93.83
72128;DHT22;60000;51.030;7.024;2022-09-29T02:26:13;6.84;93.88
72128;DHT22;60000;51.030;7.024;2022-09-29T02:28:39;6.82;93.84
72128;DHT22;60000;51.030;7.024;2022-09-29T02:31:06;6.78;93.84
72128;DHT22;60000;51.030;7.024;2022-09-29T02:33:31;6.78;93.85
72128;DHT22;60000;51.030;7.024;2022-09-29T02:38:47;6.72;93.99
72128;DHT22;60000;51.030;7.024;2022-09-29T02:41:28;6.71;93.88
72128;DHT22;60000;51.030;7.024;2022-09-29T02:47:30;6.63;93.85
72128;DHT22;60000;51.030;7.024;2022-09-29T02:50:12;6.60;93.89
72128;DHT22;60000;51.030;7.024;2022-09-29T02:55:36;6.54;93.92
72128;DHT22;60000;51.030;7.024;2022-09-29T02:58:17;6.51;94.06
72128;DHT22;60000;51.030;7.024;2022-09-29T03:00:45;6.50;93.91
72128;DHT22;60000;51.030;7.024;2022-09-29T03:03:11;6.47;93.86
72128;DHT22;60000;51.030;7.024;2022-09-29T03:05:36;6.43;93.86
72128;DHT22;60000;51.030;7.024;2022-09-29T03:08:02;6.37;93.94
72128;DHT22;60000;51.030;7.024;2022-09-29T03:10:27;6.37;93.73
72128;DHT22;60000;51.030;7.024;2022-09-29T03:12:52;6.32;93.81
72128;DHT22;60000;51.030;7.024;2022-09-29T03:15:18;6.29;93.78
72128;DHT22;60000;51.030;7.024;2022-09-29T03:17:43;6.26;93.80
72128;DHT22;60000;51.030;7.024;2022-09-29T03:20:09;6.23;93.75
72128;DHT22;60000;51.030;7.024;2022-09-29T03:22:35;6.19;93.71
72128;DHT22;60000;51.030;7.024;2022-09-29T03:25:02;6.14;93.58
72128;DHT22;60000;51.030;7.024;2022-09-29T03:27:27;6.10;93.64
72128;DHT22;60000;51.030;7.024;2022-09-29T03:29:53;6.07;93.65
72128;DHT22;60000;51.030;7.024;2022-09-29T03:32:18;6.06;93.86
72128;DHT22;60000;51.030;7.024;2022-09-29T03:34:43;6.03;93.93
72128;DHT22;60000;51.030;7.024;2022-09-29T03:37:08;6.02;93.91
72128;DHT22;60000;51.030;7.024;2022-09-29T03:39:34;5.98;93.96
72128;DHT22;60000;51.030;7.024;2022-09-29T03:41:59;5.99;94.05
72128;DHT22;60000;51.030;7.024;2022-09-29T03:44:24;5.96;93.98
72128;DHT22;60000;51.030;7.024;2022-09-29T03:46:50;5.93;93.83
72128;DHT22;60000;51.030;7.024;2022-09-29T03:49:16;5.88;93.52
72128;DHT22;60000;51.030;7.024;2022-09-29T03:51:41;5.83;93.63
72128;DHT22;60000;51.030;7.024;2022-09-29T03:54:07;5.79;93.42
72128;DHT22;60000;51.030;7.024;2022-09-29T03:56:33;5.76;93.78
72128;DHT22;60000;51.030;7.024;2022-09-29T03:58:58;5.69;93.70
72128;DHT22;60000;51.030;7.024;2022-09-29T04:01:24;5.65;93.52
72128;DHT22;60000;51.030;7.024;2022-09-29T04:03:49;5.61;93.40
72128;DHT22;60000;51.030;7.024;2022-09-29T04:06:14;5.56;93.42
72128;DHT22;60000;51.030;7.024;2022-09-29T04:08:40;5.50;93.26
72128;DHT22;60000;51.030;7.024;2022-09-29T04:11:05;5.48;93.37
72128;DHT22;60000;51.030;7.024;2022-09-29T04:13:31;5.44;93.37
72128;DHT22;60000;51.030;7.024;2022-09-29T04:16:04;5.37;93.33
72128;DHT22;60000;51.030;7.024;2022-09-29T04:18:30;5.35;93.75
72128;DHT22;60000;51.030;7.024;2022-09-29T04:20:56;5.31;93.62
72128;DHT22;60000;51.030;7.024;2022-09-29T04:23:27;5.30;93.57
72128;DHT22;60000;51.030;7.024;2022-09-29T04:25:57;5.27;93.70
72128;DHT22;60000;51.030;7.024;2022-09-29T04:28:23;5.26;93.83
72128;DHT22;60000;51.030;7.024;2022-09-29T04:30:48;5.23;93.91
72128;DHT22;60000;51.030;7.024;2022-09-29T04:33:14;5.19;93.90
72128;DHT22;60000;51.030;7.024;2022-09-29T04:35:39;5.20;94.03
72128;DHT22;60000;51.030;7.024;2022-09-29T04:38:04;5.20;94.26
72128;DHT22;60000;51.030;7.024;2022-09-29T04:40:32;5.19;94.27
72128;DHT22;60000;51.030;7.024;2022-09-29T04:42:57;5.20;94.16
72128;DHT22;60000;51.030;7.024;2022-09-29T04:45:23;5.13;94.02
72128;DHT22;60000;51.030;7.024;2022-09-29T04:47:48;5.12;93.92
72128;DHT22;60000;51.030;7.024;2022-09-29T04:50:13;5.04;93.90
72128;DHT22;60000;51.030;7.024;2022-09-29T04:52:41;5.00;93.76
72128;DHT22;60000;51.030;7.024;2022-09-29T04:55:08;4.96;93.89
72128;DHT22;60000;51.030;7.024;2022-09-29T04:57:35;4.94;93.87
72128;DHT22;60000;51.030;7.024;2022-09-29T05:00:01;4.92;93.92
72128;DHT22;60000;51.030;7.024;2022-09-29T05:02:26;4.86;93.98
72128;DHT22;60000;51.030;7.024;2022-09-29T05:04:51;4.83;94.06
72128;DHT22;60000;51.030;7.024;2022-09-29T05:07:16;4.82;94.12
72128;DHT22;60000;51.030;7.024;2022-09-29T05:09:42;4.80;94.14
72128;DHT22;60000;51.030;7.024;2022-09-29T05:12:07;4.76;94.24
72128;DHT22;60000;51.030;7.024;2022-09-29T05:14:32;4.77;94.28
72128;DHT22;60000;51.030;7.024;2022-09-29T05:16:59;4.76;94.39
72128;DHT22;60000;51.030;7.024;2022-09-29T05:19:24;4.73;94.44
72128;DHT22;60000;51.030;7.024;2022-09-29T05:21:49;4.72;94.44
72128;DHT22;60000;51.030;7.024;2022-09-29T05:24:15;4.76;94.78
72128;DHT22;60000;51.030;7.024;2022-09-29T05:26:40;4.73;94.65
72128;DHT22;60000;51.030;7.024;2022-09-29T05:29:05;4.73;94.70
72128;DHT22;60000;51.030;7.024;2022-09-29T05:31:31;4.72;94.66
72128;DHT22;60000;51.030;7.024;2022-09-29T05:33:56;4.69;94.53
72128;DHT22;60000;51.030;7.024;2022-09-29T05:36:22;4.68;94.54
72128;DHT22;60000;51.030;7.024;2022-09-29T05:38:48;4.63;94.37
72128;DHT22;60000;51.030;7.024;2022-09-29T05:41:14;4.61;94.29
72128;DHT22;60000;51.030;7.024;2022-09-29T05:43:41;4.58;94.29
72128;DHT22;60000;51.030;7.024;2022-09-29T05:46:07;4.55;94.47
72128;DHT22;60000;51.030;7.024;2022-09-29T05:48:34;4.59;94.70
72128;DHT22;60000;51.030;7.024;2022-09-29T05:51:06;4.54;94.73
72128;DHT22;60000;51.030;7.024;2022-09-29T05:53:32;4.62;95.10
72128;DHT22;60000;51.030;7.024;2022-09-29T05:55:57;4.62;94.98
72128;DHT22;60000;51.030;7.024;2022-09-29T05:58:22;4.62;95.06
72128;DHT22;60000;51.030;7.024;2022-09-29T06:00:47;4.63;95.04
72128;DHT22;60000;51.030;7.024;2022-09-29T06:03:13;4.65;95.06
72128;DHT22;60000;51.030;7.024;2022-09-29T06:05:39;4.68;95.07
72128;DHT22;60000;51.030;7.024;2022-09-29T06:08:05;4.65;95.12
72128;DHT22;60000;51.030;7.024;2022-09-29T06:10:31;4.71;95.20
72128;DHT22;60000;51.030;7.024;2022-09-29T06:12:56;4.71;95.21
72128;DHT22;60000;51.030;7.024;2022-09-29T06:15:22;4.72;95.17
72128;DHT22;60000;51.030;7.024;2022-09-29T06:17:55;4.72;95.23
72128;DHT22;60000;51.030;7.024;2022-09-29T06:20:20;4.72;95.24
72128;DHT22;60000;51.030;7.024;2022-09-29T06:22:46;4.77;95.32
72128;DHT22;60000;51.030;7.024;2022-09-29T06:25:11;4.82;95.42
72128;DHT22;60000;51.030;7.024;2022-09-29T06:27:37;4.86;95.32
72128;DHT22;60000;51.030;7.024;2022-09-29T06:30:02;4.87;95.55
72128;DHT22;60000;51.030;7.024;2022-09-29T06:32:28;4.90;95.60
72128;DHT22;60000;51.030;7.024;2022-09-29T06:34:53;4.94;95.55
72128;DHT22;60000;51.030;7.024;2022-09-29T06:37:40;4.97;95.52
72128;DHT22;60000;51.030;7.024;2022-09-29T06:40:08;5.03;95.57
72128;DHT22;60000;51.030;7.024;2022-09-29T06:42:34;5.07;95.65
72128;DHT22;60000;51.030;7.024;2022-09-29T06:44:59;5.10;95.68
72128;DHT22;60000;51.030;7.024;2022-09-29T06:47:26;5.16;95.61
72128;DHT22;60000;51.030;7.024;2022-09-29T06:49:51;5.19;95.66
72128;DHT22;60000;51.030;7.024;2022-09-29T06:52:17;5.21;95.58
72128;DHT22;60000;51.030;7.024;2022-09-29T06:54:42;5.28;95.68
72128;DHT22;60000;51.030;7.024;2022-09-29T06:57:08;5.35;95.73
72128;DHT22;60000;51.030;7.024;2022-09-29T06:59:34;5.41;95.78
72128;DHT22;60000;51.030;7.024;2022-09-29T07:01:59;5.48;95.76
72128;DHT22;60000;51.030;7.024;2022-09-29T07:04:24;5.52;95.73
72128;DHT22;60000;51.030;7.024;2022-09-29T07:06:50;5.62;95.64
72128;DHT22;60000;51.030;7.024;2022-09-29T07:09:16;5.69;95.64
72128;DHT22;60000;51.030;7.024;2022-09-29T07:11:46;5.75;95.66
72128;DHT22;60000;51.030;7.024;2022-09-29T07:14:17;5.93;95.86
72128;DHT22;60000;51.030;7.024;2022-09-29T07:16:42;6.16;95.82
72128;DHT22;60000;51.030;7.024;2022-09-29T07:19:08;6.47;96.17
72128;DHT22;60000;51.030;7.024;2022-09-29T07:21:34;6.87;96.88
72128;DHT22;60000;51.030;7.024;2022-09-29T07:23:59;7.19;96.34
72128;DHT22;60000;51.030;7.024;2022-09-29T07:26:24;7.47;95.40
72128;DHT22;60000;51.030;7.024;2022-09-29T07:28:50;7.71;94.70
72128;DHT22;60000;51.030;7.024;2022-09-29T07:31:18;7.90;93.44
72128;DHT22;60000;51.030;7.024;2022-09-29T07:33:44;8.15;92.72
72128;DHT22;60000;51.030;7.024;2022-09-29T07:36:11;8.52;91.97
72128;DHT22;60000;51.030;7.024;2022-09-29T07:38:36;8.97;92.02
72128;DHT22;60000;51.030;7.024;2022-09-29T07:41:03;9.31;90.84
72128;DHT22;60000;51.030;7.024;2022-09-29T07:43:29;9.69;88.99
72128;DHT22;60000;51.030;7.024;2022-09-29T07:45:55;10.00;87.60
72128;DHT22;60000;51.030;7.024;2022-09-29T07:48:20;10.22;85.96
72128;DHT22;60000;51.030;7.024;2022-09-29T07:50:46;10.49;84.88
72128;DHT22;60000;51.030;7.024;2022-09-29T07:53:12;10.51;82.39
72128;DHT22;60000;51.030;7.024;2022-09-29T07:55:38;10.95;83.21
72128;DHT22;60000;51.030;7.024;2022-09-29T07:58:04;11.06;80.01
72128;DHT22;60000;51.030;7.024;2022-09-29T08:00:29;11.29;80.76
72128;DHT22;60000;51.030;7.024;2022-09-29T08:03:01;11.51;79.81
72128;DHT22;60000;51.030;7.024;2022-09-29T08:05:27;11.64;78.53
72128;DHT22;60000;51.030;7.024;2022-09-29T08:07:53;11.85;78.34
72128;DHT22;60000;51.030;7.024;2022-09-29T08:10:19;11.77;76.26
72128;DHT22;60000;51.030;7.024;2022-09-29T08:12:44;11.97;77.40
72128;DHT22;60000;51.030;7.024;2022-09-29T08:15:09;11.92;75.29
72128;DHT22;60000;51.030;7.024;2022-09-29T08:17:34;11.81;75.21
72128;DHT22;60000;51.030;7.024;2022-09-29T08:20:00;11.81;74.47
72128;DHT22;60000;51.030;7.024;2022-09-29T08:22:25;11.71;74.89
72128;DHT22;60000;51.030;7.024;2022-09-29T08:24:50;12.19;77.04
72128;DHT22;60000;51.030;7.024;2022-09-29T08:27:16;12.46;74.78
72128;DHT22;60000;51.030;7.024;2022-09-29T08:29:41;12.70;74.68
72128;DHT22;60000;51.030;7.024;2022-09-29T08:32:06;12.77;72.82
72128;DHT22;60000;51.030;7.024;2022-09-29T08:34:32;13.07;73.67
72128;DHT22;60000;51.030;7.024;2022-09-29T08:36:57;13.25;73.33
72128;DHT22;60000;51.030;7.024;2022-09-29T08:39:22;13.38;70.94
72128;DHT22;60000;51.030;7.024;2022-09-29T08:42:15;13.49;71.61
72128;DHT22;60000;51.030;7.024;2022-09-29T08:45:07;13.67;71.75
72128;DHT22;60000;51.030;7.024;2022-09-29T08:47:44;13.73;69.69
72128;DHT22;60000;51.030;7.024;2022-09-29T08:50:15;13.79;71.26
72128;DHT22;60000;51.030;7.024;2022-09-29T08:52:49;13.96;69.30
72128;DHT22;60000;51.030;7.024;2022-09-29T08:57:41;14.45;68.65
72128;DHT22;60000;51.030;7.024;2022-09-29T09:00:14;14.64;67.79
72128;DHT22;60000;51.030;7.024;2022-09-29T09:03:01;14.45;66.45
72128;DHT22;60000;51.030;7.024;2022-09-29T09:11:26;15.20;68.84
72128;DHT22;60000;51.030;7.024;2022-09-29T09:20:09;15.71;64.17
72128;DHT22;60000;51.030;7.024;2022-09-29T09:22:55;15.74;64.24
72128;DHT22;60000;51.030;7.024;2022-09-29T09:25:35;15.85;65.56
72128;DHT22;60000;51.030;7.024;2022-09-29T09:30:57;16.28;63.71
72128;DHT22;60000;51.030;7.024;2022-09-29T09:33:30;16.45;63.43
72128;DHT22;60000;51.030;7.024;2022-09-29T09:36:03;16.52;61.92
72128;DHT22;60000;51.030;7.024;2022-09-29T09:38:40;16.70;61.59
72128;DHT22;60000;51.030;7.024;2022-09-29T09:41:08;16.81;59.14
72128;DHT22;60000;51.030;7.024;2022-09-29T09:43:39;16.67;59.41
72128;DHT22;60000;51.030;7.024;2022-09-29T09:46:33;16.60;59.41
72128;DHT22;60000;51.030;7.024;2022-09-29T09:49:29;16.55;59.48
72128;DHT22;60000;51.030;7.024;2022-09-29T09:54:38;16.76;59.28
72128;DHT22;60000;51.030;7.024;2022-09-29T09:59:59;17.24;59.48
72128;DHT22;60000;51.030;7.024;2022-09-29T10:02:28;17.15;58.65
72128;DHT22;60000;51.030;7.024;2022-09-29T10:04:54;17.31;58.58
72128;DHT22;60000;51.030;7.024;2022-09-29T10:07:24;17.19;55.83
72128;DHT22;60000;51.030;7.024;2022-09-29T10:09:52;17.08;55.50
72128;DHT22;60000;51.030;7.024;2022-09-29T10:12:19;17.08;56.35
72128;DHT22;60000;51.030;7.024;2022-09-29T10:14:58;17.10;56.38
72128;DHT22;60000;51.030;7.024;2022-09-29T10:17:26;17.14;56.67
72128;DHT22;60000;51.030;7.024;2022-09-29T10:20:05;17.15;56.90
72128;DHT22;60000;51.030;7.024;2022-09-29T10:22:32;17.42;57.60
72128;DHT22;60000;51.030;7.024;2022-09-29T10:25:16;17.59;56.73
72128;DHT22;60000;51.030;7.024;2022-09-29T10:27:45;17.70;55.36
72128;DHT22;60000;51.030;7.024;2022-09-29T10:30:17;17.73;54.73
72128;DHT22;60000;51.030;7.024;2022-09-29T10:32:44;17.80;55.91
72128;DHT22;60000;51.030;7.024;2022-09-29T10:37:46;18.21;55.77
72128;DHT22;60000;51.030;7.024;2022-09-29T10:40:17;18.37;52.16
72128;DHT22;60000;51.030;7.024;2022-09-29T10:42:46;18.54;53.09
72128;DHT22;60000;51.030;7.024;2022-09-29T10:45:27;18.73;50.40
72128;DHT22;60000;51.030;7.024;2022-09-29T10:50:23;18.96;51.89
72128;DHT22;60000;51.030;7.024;2022-09-29T10:52:56;19.02;49.85
72128;DHT22;60000;51.030;7.024;2022-09-29T10:55:24;19.10;49.96
72128;DHT22;60000;51.030;7.024;2022-09-29T10:57:51;18.95;48.88
72128;DHT22;60000;51.030;7.024;2022-09-29T11:02:59;19.15;50.20
72128;DHT22;60000;51.030;7.024;2022-09-29T11:05:26;19.33;50.87
72128;DHT22;60000;51.030;7.024;2022-09-29T11:07:52;19.31;47.71
72128;DHT22;60000;51.030;7.024;2022-09-29T11:10:33;19.20;47.86
72128;DHT22;60000;51.030;7.024;2022-09-29T11:15:48;18.49;46.69
72128;DHT22;60000;51.030;7.024;2022-09-29T11:18:24;18.21;49.20
72128;DHT22;60000;51.030;7.024;2022-09-29T11:21:12;18.16;48.24
72128;DHT22;60000;51.030;7.024;2022-09-29T11:29:49;17.94;49.98
72128;DHT22;60000;51.030;7.024;2022-09-29T11:38:36;17.89;48.71
72128;DHT22;60000;51.030;7.024;2022-09-29T11:41:17;17.99;48.79
72128;DHT22;60000;51.030;7.024;2022-09-29T11:43:52;18.01;49.44
72128;DHT22;60000;51.030;7.024;2022-09-29T11:49:21;17.89;47.39
72128;DHT22;60000;51.030;7.024;2022-09-29T12:02:21;17.53;49.26
72128;DHT22;60000;51.030;7.024;2022-09-29T12:05:02;17.58;49.71
72128;DHT22;60000;51.030;7.024;2022-09-29T12:17:38;17.19;45.78
72128;DHT22;60000;51.030;7.024;2022-09-29T12:25:15;16.83;47.65
72128;DHT22;60000;51.030;7.024;2022-09-29T12:27:42;16.77;46.78
72128;DHT22;60000;51.030;7.024;2022-09-29T12:30:29;16.66;46.43
72128;DHT22;60000;51.030;7.024;2022-09-29T12:32:59;16.69;48.42
72128;DHT22;60000;51.030;7.024;2022-09-29T12:35:34;16.61;47.09
72128;DHT22;60000;51.030;7.024;2022-09-29T12:38:35;16.67;46.94
72128;DHT22;60000;51.030;7.024;2022-09-29T12:41:25;16.85;48.86
72128;DHT22;60000;51.030;7.024;2022-09-29T12:44:13;16.83;46.90
72128;DHT22;60000;51.030;7.024;2022-09-29T12:49:21;16.77;47.26
72128;DHT22;60000;51.030;7.024;2022-09-29T12:51:52;16.88;48.50
72128;DHT22;60000;51.030;7.024;2022-09-29T12:54:34;16.84;46.62
72128;DHT22;60000;51.030;7.024;2022-09-29T12:57:17;16.85;48.34
72128;DHT22;60000;51.030;7.024;2022-09-29T13:00:04;16.79;47.27
72128;DHT22;60000;51.030;7.024;2022-09-29T13:08:18;16.70;48.29
72128;DHT22;60000;51.030;7.024;2022-09-29T13:13:27;16.59;47.17
72128;DHT22;60000;51.030;7.024;2022-09-29T13:19:53;16.36;48.26
72128;DHT22;60000;51.030;7.024;2022-09-29T13:27:38;16.39;47.21
72128;DHT22;60000;51.030;7.024;2022-09-29T13:32:43;16.39;49.98
72128;DHT22;60000;51.030;7.024;2022-09-29T13:35:13;16.30;49.03
72128;DHT22;60000;51.030;7.024;2022-09-29T13:38:03;16.16;49.50
72128;DHT22;60000;51.030;7.024;2022-09-29T13:40:30;16.15;50.59
72128;DHT22;60000;51.030;7.024;2022-09-29T13:42:57;16.09;50.21
72128;DHT22;60000;51.030;7.024;2022-09-29T13:47:52;16.01;50.82
72128;DHT22;60000;51.030;7.024;2022-09-29T13:50:46;15.99;52.08
72128;DHT22;60000;51.030;7.024;2022-09-29T13:58:28;15.77;51.66
72128;DHT22;60000;51.030;7.024;2022-09-29T14:00:55;15.77;51.97
72128;DHT22;60000;51.030;7.024;2022-09-29T14:03:32;15.80;51.92
72128;DHT22;60000;51.030;7.024;2022-09-29T14:06:04;15.87;52.47
72128;DHT22;60000;51.030;7.024;2022-09-29T14:08:37;15.90;51.21
72128;DHT22;60000;51.030;7.024;2022-09-29T14:11:10;15.91;51.05
72128;DHT22;60000;51.030;7.024;2022-09-29T14:13:51;15.91;49.79
72128;DHT22;60000;51.030;7.024;2022-09-29T14:16:26;15.92;49.42
72128;DHT22;60000;51.030;7.024;2022-09-29T14:21:51;16.04;48.53
72128;DHT22;60000;51.030;7.024;2022-09-29T14:27:18;16.01;47.83
72128;DHT22;60000;51.030;7.024;2022-09-29T14:30:01;16.13;49.99
72128;DHT22;60000;51.030;7.024;2022-09-29T14:35:31;16.13;47.71
72128;DHT22;60000;51.030;7.024;2022-09-29T14:38:01;16.25;49.81
72128;DHT22;60000;51.030;7.024;2022-09-29T14:40:27;16.18;49.17
72128;DHT22;60000;51.030;7.024;2022-09-29T14:43:14;16.08;48.39
72128;DHT22;60000;51.030;7.024;2022-09-29T14:49:18;15.97;49.04
72128;DHT22;60000;51.030;7.024;2022-09-29T14:52:14;15.92;49.29
72128;DHT22;60000;51.030;7.024;2022-09-29T14:57:48;16.05;50.74
72128;DHT22;60000;51.030;7.024;2022-09-29T15:03:26;16.15;50.53
72128;DHT22;60000;51.030;7.024;2022-09-29T15:06:05;16.22;51.25
72128;DHT22;60000;51.030;7.024;2022-09-29T15:08:31;16.25;51.28
72128;DHT22;60000;51.030;7.024;2022-09-29T15:10:58;16.21;49.93
72128;DHT22;60000;51.030;7.024;2022-09-29T15:13:28;16.22;51.32
72128;DHT22;60000;51.030;7.024;2022-09-29T15:16:02;16.25;52.70
72128;DHT22;60000;51.030;7.024;2022-09-29T15:23:47;16.13;50.96
72128;DHT22;60000;51.030;7.024;2022-09-29T15:26:20;16.05;50.05
72128;DHT22;60000;51.030;7.024;2022-09-29T15:28:45;16.02;50.72
72128;DHT22;60000;51.030;7.024;2022-09-29T15:31:15;15.95;48.91
72128;DHT22;60000;51.030;7.024;2022-09-29T15:33:42;15.90;50.14
72128;DHT22;60000;51.030;7.024;2022-09-29T15:36:21;15.88;50.95
72128;DHT22;60000;51.030;7.024;2022-09-29T16:15:28;14.73;54.61
72128;DHT22;60000;51.030;7.024;2022-09-29T16:40:51;13.75;58.16
72128;DHT22;60000;51.030;7.024;2022-09-29T16:43:20;13.65;59.13
72128;DHT22;60000;51.030;7.024;2022-09-29T16:45:52;13.52;60.13
72128;DHT22;60000;51.030;7.024;2022-09-29T16:48:24;13.41;60.59
72128;DHT22;60000;51.030;7.024;2022-09-29T16:50:59;13.32;61.24
72128;DHT22;60000;51.030;7.024;2022-09-29T16:53:30;13.31;61.18
72128;DHT22;60000;51.030;7.024;2022-09-29T16:56:07;13.18;62.29
72128;DHT22;60000;51.030;7.024;2022-09-29T16:58:34;13.05;62.73
72128;DHT22;60000;51.030;7.024;2022-09-29T17:01:01;12.94;63.36
72128;DHT22;60000;51.030;7.024;2022-09-29T17:03:27;12.81;64.08
72128;DHT22;60000;51.030;7.024;2022-09-29T17:05:54;12.73;64.08
72128;DHT22;60000;51.030;7.024;2022-09-29T17:08:37;12.63;63.87
72128;DHT22;60000;51.030;7.024;2022-09-29T17:11:02;12.56;64.09
72128;DHT22;60000;51.030;7.024;2022-09-29T17:13:31;12.55;64.42
72128;DHT22;60000;51.030;7.024;2022-09-29T17:15:57;12.46;65.19
72128;DHT22;60000;51.030;7.024;2022-09-29T17:18:23;12.37;65.73
72128;DHT22;60000;51.030;7.024;2022-09-29T17:20:51;12.26;66.20
72128;DHT22;60000;51.030;7.024;2022-09-29T17:23:17;12.18;66.78
72128;DHT22;60000;51.030;7.024;2022-09-29T17:25:46;12.09;67.51
72128;DHT22;60000;51.030;7.024;2022-09-29T17:28:15;11.99;68.09
72128;DHT22;60000;51.030;7.024;2022-09-29T17:30:44;11.87;68.53
72128;DHT22;60000;51.030;7.024;2022-09-29T17:33:17;11.89;69.12
72128;DHT22;60000;51.030;7.024;2022-09-29T17:35:49;11.82;69.34
72128;DHT22;60000;51.030;7.024;2022-09-29T17:38:25;11.75;69.41
72128;DHT22;60000;51.030;7.024;2022-09-29T17:41:03;11.66;69.83
72128;DHT22;60000;51.030;7.024;2022-09-29T17:43:32;11.56;70.15
72128;DHT22;60000;51.030;7.024;2022-09-29T17:45:58;11.48;70.62
72128;DHT22;60000;51.030;7.024;2022-09-29T17:48:34;11.37;70.98
72128;DHT22;60000;51.030;7.024;2022-09-29T17:51:02;11.29;71.53
72128;DHT22;60000;51.030;7.024;2022-09-29T17:53:31;11.19;71.82
72128;DHT22;60000;51.030;7.024;2022-09-29T17:55:56;11.12;72.54
72128;DHT22;60000;51.030;7.024;2022-09-29T17:58:22;11.03;72.80
72128;DHT22;60000;51.030;7.024;2022-09-29T18:00:50;10.98;73.25
72128;DHT22;60000;51.030;7.024;2022-09-29T18:03:18;10.91;73.70
72128;DHT22;60000;51.030;7.024;2022-09-29T18:05:45;10.85;74.07
72128;DHT22;60000;51.030;7.024;2022-09-29T18:08:16;10.76;74.38
72128;DHT22;60000;51.030;7.024;2022-09-29T18:10:55;10.67;74.84
72128;DHT22;60000;51.030;7.024;2022-09-29T18:13:22;10.62;75.74
72128;DHT22;60000;51.030;7.024;2022-09-29T18:15:48;10.61;76.07
72128;DHT22;60000;51.030;7.024;2022-09-29T18:18:16;10.55;76.66
72128;DHT22;60000;51.030;7.024;2022-09-29T18:20:45;10.49;77.27
72128;DHT22;60000;51.030;7.024;2022-09-29T18:23:12;10.48;77.46
72128;DHT22;60000;51.030;7.024;2022-09-29T18:25:40;10.44;77.92
72128;DHT22;60000;51.030;7.024;2022-09-29T18:28:05;10.44;77.98
72128;DHT22;60000;51.030;7.024;2022-09-29T18:30:34;10.41;78.17
72128;DHT22;60000;51.030;7.024;2022-09-29T18:33:05;10.41;78.28
72128;DHT22;60000;51.030;7.024;2022-09-29T18:35:32;10.40;78.47
72128;DHT22;60000;51.030;7.024;2022-09-29T18:37:58;10.40;78.80
72128;DHT22;60000;51.030;7.024;2022-09-29T18:40:25;10.37;78.98
72128;DHT22;60000;51.030;7.024;2022-09-29T18:42:52;10.37;78.83
72128;DHT22;60000;51.030;7.024;2022-09-29T18:45:27;10.33;79.12
72128;DHT22;60000;51.030;7.024;2022-09-29T18:47:55;10.30;79.22
72128;DHT22;60000;51.030;7.024;2022-09-29T18:50:34;10.33;79.47
72128;DHT22;60000;51.030;7.024;2022-09-29T18:53:00;10.30;79.33
72128;DHT22;60000;51.030;7.024;2022-09-29T18:55:28;10.31;79.60
72128;DHT22;60000;51.030;7.024;2022-09-29T18:57:55;10.27;79.75
72128;DHT22;60000;51.030;7.024;2022-09-29T19:00:23;10.22;79.73
72128;DHT22;60000;51.030;7.024;2022-09-29T19:02:49;10.18;80.06
72128;DHT22;60000;51.030;7.024;2022-09-29T19:05:20;10.16;80.29
72128;DHT22;60000;51.030;7.024;2022-09-29T19:07:50;10.10;80.59
72128;DHT22;60000;51.030;7.024;2022-09-29T19:10:16;10.03;80.72
72128;DHT22;60000;51.030;7.024;2022-09-29T19:12:42;10.01;80.65
72128;DHT22;60000;51.030;7.024;2022-09-29T19:15:14;9.97;80.64
72128;DHT22;60000;51.030;7.024;2022-09-29T19:17:40;9.96;80.68
72128;DHT22;60000;51.030;7.024;2022-09-29T19:20:05;9.96;80.85
72128;DHT22;60000;51.030;7.024;2022-09-29T19:22:31;9.91;80.65